Time;durP1;ratioP1;P1;durP2;ratioP2;P2;SDS_P1;SDS_P2;PMS_P1;PMS_P2;Temp;Humidity;BMP_temperature;BMP_pressure;BME280_temperature;BME280_humidity;BME280_pressure;Samples;Min_cycle;Max_cycle;Signal;HPM_P1;HPM_P2
2021/10/07 04:30:54;;;;;;;2.83;1.30;;;10.20;99.90;;;;;;5886864;23;20507;-74
2021/10/07 04:33:20;;;;;;;2.80;1.70;;;10.20;99.90;;;;;;4950031;28;20434;-76
2021/10/07 04:35:45;;;;;;;3.70;1.70;;;10.20;99.90;;;;;;4935884;29;20187;-77
2021/10/07 04:38:11;;;;;;;1.83;1.50;;;10.20;99.90;;;;;;4948939;29;20267;-78
2021/10/07 04:40:37;;;;;;;1.23;1.10;;;10.20;99.90;;;;;;4950969;28;20596;-76
2021/10/07 04:43:03;;;;;;;1.70;1.50;;;10.20;99.90;;;;;;4955462;29;20182;-80
2021/10/07 04:45:29;;;;;;;2.20;1.50;;;10.20;99.90;;;;;;4938956;28;20264;-76
2021/10/07 04:47:56;;;;;;;6.63;1.10;;;10.20;99.90;;;;;;4934330;29;20504;-77
2021/10/07 04:50:21;;;;;;;2.77;1.27;;;10.20;99.90;;;;;;4936492;29;20185;-77
2021/10/07 04:52:47;;;;;;;3.00;1.50;;;10.10;99.90;;;;;;4936150;29;20515;-74
2021/10/07 04:55:13;;;;;;;3.53;1.40;;;10.10;99.90;;;;;;4941940;29;20649;-74
2021/10/07 04:57:39;;;;;;;3.97;1.90;;;10.10;99.90;;;;;;4936369;29;20179;-77
2021/10/07 05:00:06;;;;;;;4.57;2.87;;;10.10;99.90;;;;;;4949253;29;21006;-78
2021/10/07 05:02:34;;;;;;;8.17;3.40;;;10.20;99.90;;;;;;4951882;28;20254;-77
2021/10/07 05:05:00;;;;;;;8.70;3.20;;;10.10;99.90;;;;;;4946228;28;20558;-78
2021/10/07 05:07:25;;;;;;;7.93;2.40;;;10.10;99.90;;;;;;4953911;29;20518;-78
2021/10/07 05:09:51;;;;;;;4.83;2.27;;;10.10;99.90;;;;;;4952085;29;20735;-77
2021/10/07 05:12:16;;;;;;;6.07;2.60;;;10.10;99.90;;;;;;4953436;28;20208;-78
2021/10/07 05:14:42;;;;;;;5.90;2.30;;;10.10;99.90;;;;;;4951620;29;20569;-78
2021/10/07 05:17:07;;;;;;;6.17;2.30;;;10.10;99.90;;;;;;4943338;29;20209;-77
2021/10/07 05:19:33;;;;;;;2.73;2.30;;;10.10;99.90;;;;;;4954797;29;20603;-77
2021/10/07 05:21:58;;;;;;;3.43;1.87;;;10.10;99.90;;;;;;4952477;29;20220;-77
2021/10/07 05:24:24;;;;;;;2.60;1.67;;;10.10;99.90;;;;;;4951535;29;20182;-77
2021/10/07 05:26:49;;;;;;;5.63;2.70;;;10.10;99.90;;;;;;4951530;29;20189;-78
2021/10/07 05:29:15;;;;;;;5.73;2.30;;;10.10;99.90;;;;;;4954298;29;20181;-78
2021/10/07 05:31:40;;;;;;;2.13;1.90;;;10.20;99.90;;;;;;4947424;29;20250;-78
2021/10/07 05:34:06;;;;;;;4.50;2.80;;;10.30;99.90;;;;;;4945945;28;20195;-78
2021/10/07 05:36:31;;;;;;;6.13;2.23;;;10.30;99.90;;;;;;4949071;29;20187;-79
2021/10/07 05:38:57;;;;;;;6.00;2.33;;;10.30;99.90;;;;;;4950356;28;20183;-77
2021/10/07 05:41:23;;;;;;;2.30;1.77;;;10.30;99.90;;;;;;4952349;29;20300;-80
2021/10/07 05:43:48;;;;;;;9.13;2.70;;;10.30;99.90;;;;;;4952549;28;20191;-77
2021/10/07 05:46:14;;;;;;;3.20;2.27;;;10.30;99.90;;;;;;4950980;29;20657;-78
2021/10/07 05:48:40;;;;;;;5.50;2.33;;;10.30;99.90;;;;;;4950098;28;20183;-76
2021/10/07 05:51:05;;;;;;;3.67;2.07;;;10.30;99.90;;;;;;4952523;29;20246;-78
2021/10/07 05:53:31;;;;;;;2.20;2.00;;;10.30;99.90;;;;;;4951104;29;20544;-77
2021/10/07 05:55:56;;;;;;;2.60;1.90;;;10.40;99.90;;;;;;4951761;29;20598;-78
2021/10/07 05:58:22;;;;;;;2.60;1.80;;;10.40;99.90;;;;;;4952324;29;20200;-78
2021/10/07 06:00:47;;;;;;;4.40;2.07;;;10.40;99.90;;;;;;4947330;29;20306;-78
2021/10/07 06:03:13;;;;;;;5.10;1.87;;;10.40;99.90;;;;;;4951779;29;20617;-79
2021/10/07 06:05:39;;;;;;;1.77;1.63;;;10.50;99.90;;;;;;4952902;29;20187;-78
2021/10/07 06:08:06;;;;;;;2.03;1.77;;;10.50;99.90;;;;;;4952013;28;20278;-79
2021/10/07 06:10:31;;;;;;;4.07;2.30;;;10.50;99.90;;;;;;4947212;29;20447;-79
2021/10/07 06:12:57;;;;;;;8.53;1.43;;;10.50;99.90;;;;;;4953673;29;20931;-78
2021/10/07 06:15:26;;;;;;;2.00;1.80;;;10.60;99.90;;;;;;4950685;29;20203;-76
2021/10/07 06:17:52;;;;;;;2.07;1.87;;;10.60;99.90;;;;;;4936917;29;20188;-77
2021/10/07 06:20:24;;;;;;;4.47;1.77;;;10.60;99.90;;;;;;4952028;28;20529;-78
2021/10/07 06:22:50;;;;;;;2.03;1.93;;;10.60;99.90;;;;;;4950086;29;20211;-77
2021/10/07 06:25:16;;;;;;;2.13;1.60;;;10.70;99.90;;;;;;4947555;28;20800;-77
2021/10/07 06:27:43;;;;;;;3.40;1.60;;;10.70;99.90;;;;;;4953794;29;20436;-78
2021/10/07 06:30:10;;;;;;;2.87;1.97;;;10.70;99.90;;;;;;4950600;28;20448;-78
2021/10/07 06:32:36;;;;;;;2.60;1.50;;;10.70;99.90;;;;;;4947114;28;20504;-77
2021/10/07 06:35:02;;;;;;;3.97;2.10;;;10.80;99.90;;;;;;4949394;28;20951;-77
2021/10/07 06:37:28;;;;;;;3.80;1.80;;;10.80;99.90;;;;;;4948764;28;20441;-78
2021/10/07 06:39:53;;;;;;;4.00;1.57;;;10.80;99.90;;;;;;4950619;29;20453;-77
2021/10/07 06:42:19;;;;;;;3.77;2.13;;;10.80;99.90;;;;;;4950043;28;20213;-77
2021/10/07 06:44:45;;;;;;;5.07;3.07;;;10.90;99.90;;;;;;4952856;28;20164;-79
2021/10/07 06:47:10;;;;;;;2.23;1.50;;;10.90;99.90;;;;;;4948445;29;20185;-79
2021/10/07 06:49:36;;;;;;;2.90;1.87;;;10.90;99.90;;;;;;4953364;29;20200;-80
2021/10/07 06:52:03;;;;;;;4.60;1.77;;;11.00;99.90;;;;;;4951664;29;20232;-78
2021/10/07 06:54:29;;;;;;;1.50;1.40;;;11.00;99.90;;;;;;4940312;28;20189;-78
2021/10/07 06:56:54;;;;;;;2.60;2.40;;;11.00;99.90;;;;;;4951680;29;20475;-78
2021/10/07 06:59:20;;;;;;;6.53;2.40;;;11.10;99.90;;;;;;4951518;29;20252;-77
2021/10/07 07:01:45;;;;;;;6.10;3.63;;;11.10;99.90;;;;;;4950456;29;20260;-77
2021/10/07 07:04:15;;;;;;;8.83;3.30;;;11.10;99.90;;;;;;4948955;29;20566;-75
2021/10/07 07:06:42;;;;;;;7.60;5.17;;;11.20;99.90;;;;;;4953559;28;20199;-78
2021/10/07 07:09:08;;;;;;;6.60;4.10;;;11.20;99.90;;;;;;4942997;28;20812;-77
2021/10/07 07:11:34;;;;;;;6.27;4.50;;;11.30;99.90;;;;;;4951999;29;20445;-77
2021/10/07 07:14:02;;;;;;;6.43;3.53;;;11.40;99.90;;;;;;4950367;29;20507;-78
2021/10/07 07:16:28;;;;;;;4.73;3.80;;;11.40;99.90;;;;;;4949406;28;20185;-78
2021/10/07 07:18:54;;;;;;;4.30;3.93;;;11.40;99.90;;;;;;4951595;28;20876;-77
2021/10/07 07:21:20;;;;;;;5.67;4.67;;;11.50;99.90;;;;;;4953224;29;20519;-78
2021/10/07 07:23:46;;;;;;;7.13;4.13;;;11.50;99.90;;;;;;4949896;28;20235;-78
2021/10/07 07:26:12;;;;;;;7.90;5.20;;;11.50;99.90;;;;;;4944005;28;20436;-79
2021/10/07 07:28:38;;;;;;;6.30;5.33;;;11.60;99.90;;;;;;4953024;28;20532;-77
2021/10/07 07:31:04;;;;;;;5.90;5.40;;;11.60;99.90;;;;;;4947783;28;20475;-76
2021/10/07 07:33:29;;;;;;;5.57;4.80;;;11.70;99.90;;;;;;4949688;29;20665;-78
2021/10/07 07:35:55;;;;;;;8.17;4.77;;;11.70;99.90;;;;;;4951157;29;20195;-77
2021/10/07 07:38:20;;;;;;;7.43;4.03;;;11.80;99.90;;;;;;4951229;29;20564;-78
2021/10/07 07:40:46;;;;;;;7.23;5.70;;;11.80;99.90;;;;;;4949874;29;20252;-78
2021/10/07 07:43:18;;;;;;;8.30;4.77;;;11.90;99.90;;;;;;4952724;29;20310;-78
2021/10/07 07:45:46;;;;;;;6.73;5.17;;;12.00;99.90;;;;;;4950175;28;20192;-78
2021/10/07 07:48:11;;;;;;;10.60;7.43;;;12.10;99.90;;;;;;4951748;28;20992;-78
2021/10/07 07:50:37;;;;;;;6.87;5.20;;;12.20;99.90;;;;;;4950888;29;20508;-78
2021/10/07 07:53:02;;;;;;;8.83;6.10;;;12.30;99.90;;;;;;4950794;29;20248;-78
2021/10/07 07:55:28;;;;;;;8.77;6.40;;;12.30;99.90;;;;;;4950830;29;20197;-79
2021/10/07 07:57:54;;;;;;;5.13;4.37;;;12.30;99.90;;;;;;4946638;28;20197;-78
2021/10/07 08:00:19;;;;;;;9.53;6.10;;;12.40;99.90;;;;;;4935708;29;20209;-77
2021/10/07 08:02:45;;;;;;;8.90;5.83;;;12.30;99.90;;;;;;4946620;29;20216;-77
2021/10/07 08:05:11;;;;;;;7.83;6.43;;;12.40;99.90;;;;;;4956375;29;20177;-77
2021/10/07 08:07:36;;;;;;;6.73;5.87;;;12.40;99.90;;;;;;4952785;28;20185;-77
2021/10/07 08:10:03;;;;;;;8.10;6.27;;;12.40;99.90;;;;;;4944370;28;20181;-76
2021/10/07 08:12:33;;;;;;;7.93;5.40;;;12.50;99.90;;;;;;4953016;28;20267;-76
2021/10/07 08:15:00;;;;;;;12.20;5.87;;;12.60;99.90;;;;;;4954462;28;20472;-77
2021/10/07 08:17:26;;;;;;;9.93;6.30;;;12.60;99.90;;;;;;4953753;29;20427;-77
2021/10/07 08:19:51;;;;;;;8.00;6.87;;;12.70;99.90;;;;;;4953680;28;20519;-77
2021/10/07 08:22:18;;;;;;;7.83;6.70;;;12.70;99.90;;;;;;4954462;28;20441;-77
2021/10/07 08:24:44;;;;;;;7.80;7.00;;;12.80;99.90;;;;;;4944618;28;20553;-77
2021/10/07 08:27:09;;;;;;;9.97;6.67;;;12.70;99.90;;;;;;4936726;29;20430;-77
2021/10/07 08:29:35;;;;;;;12.03;7.60;;;12.80;99.90;;;;;;4943777;29;20186;-77
2021/10/07 08:32:00;;;;;;;13.90;7.63;;;12.70;99.90;;;;;;4953039;28;20221;-76
2021/10/07 08:34:26;;;;;;;11.30;7.87;;;12.80;99.90;;;;;;4948170;29;20557;-77
2021/10/07 08:36:51;;;;;;;10.60;7.03;;;12.90;99.90;;;;;;4934032;29;20693;-77
2021/10/07 08:39:17;;;;;;;13.43;7.50;;;13.00;99.90;;;;;;4937375;29;20189;-77
2021/10/07 08:41:45;;;;;;;8.73;7.50;;;13.20;99.90;;;;;;4951486;29;20220;-78
2021/10/07 08:44:13;;;;;;;9.63;6.73;;;13.50;99.90;;;;;;4953624;28;20865;-80
2021/10/07 08:46:40;;;;;;;7.63;6.63;;;13.90;99.90;;;;;;4953133;29;20432;-78
2021/10/07 08:49:13;;;;;;;6.43;5.83;;;14.20;99.90;;;;;;4955364;28;20412;-78
2021/10/07 08:51:39;;;;;;;7.43;6.73;;;14.30;99.90;;;;;;4949202;28;20455;-78
2021/10/07 08:54:04;;;;;;;9.93;6.63;;;14.50;99.90;;;;;;4954835;28;20408;-78
2021/10/07 08:56:30;;;;;;;7.03;6.33;;;14.70;99.90;;;;;;4950662;29;20246;-78
2021/10/07 08:58:56;;;;;;;10.57;5.57;;;14.70;99.90;;;;;;4953227;29;20181;-77
2021/10/07 09:01:43;;;;;;;6.57;5.50;;;15.00;99.90;;;;;;4953568;28;20287;-78
2021/10/07 09:04:24;;;;;;;5.67;5.10;;;15.20;99.90;;;;;;4953158;29;20993;-78
2021/10/07 09:06:56;;;;;;;6.37;5.73;;;15.50;99.90;;;;;;4950387;28;20436;-79
2021/10/07 09:09:22;;;;;;;5.27;4.87;;;15.90;99.90;;;;;;4952731;28;20408;-77
2021/10/07 09:11:54;;;;;;;6.10;5.57;;;15.90;99.90;;;;;;4952973;29;20464;-75
2021/10/07 09:14:25;;;;;;;8.30;4.87;;;15.90;99.90;;;;;;4951345;28;20821;-77
2021/10/07 09:16:52;;;;;;;9.90;4.97;;;15.90;99.90;;;;;;4953267;28;20447;-77
2021/10/07 09:19:37;;;;;;;5.67;5.27;;;15.60;99.90;;;;;;4953922;29;20567;-77
2021/10/07 09:22:14;;;;;;;5.53;5.03;;;15.30;99.90;;;;;;4951398;28;21014;-78
2021/10/07 09:24:42;;;;;;;7.03;5.80;;;15.20;99.90;;;;;;4940709;29;20998;-77
2021/10/07 09:27:12;;;;;;;5.87;5.00;;;15.10;99.90;;;;;;4951345;29;20459;-76
2021/10/07 09:29:42;;;;;;;5.87;5.27;;;14.90;99.90;;;;;;4951038;29;20451;-77
2021/10/07 09:32:09;;;;;;;10.00;5.20;;;14.80;99.90;;;;;;4953973;28;20545;-78
2021/10/07 09:34:44;;;;;;;7.47;6.10;;;14.60;99.90;;;;;;4948368;28;20452;-77
2021/10/07 09:37:20;;;;;;;6.83;5.03;;;14.50;99.90;;;;;;4952694;28;20420;-77
2021/10/07 09:39:51;;;;;;;6.63;5.47;;;14.20;99.90;;;;;;4946936;29;20437;-76
2021/10/07 09:42:18;;;;;;;8.63;5.60;;;14.10;99.90;;;;;;4953838;28;20853;-77
2021/10/07 09:45:00;;;;;;;7.50;6.70;;;14.00;99.90;;;;;;4950458;28;20432;-75
2021/10/07 09:47:31;;;;;;;9.83;6.97;;;13.80;99.90;;;;;;4954168;29;20409;-76
2021/10/07 09:50:15;;;;;;;10.50;8.20;;;13.70;99.90;;;;;;4951346;28;20532;-77
2021/10/07 09:52:43;;;;;;;11.73;9.37;;;13.60;99.90;;;;;;4954064;29;20452;-76
2021/10/07 09:55:08;;;;;;;14.70;11.77;;;13.50;99.90;;;;;;4951505;28;20432;-77
2021/10/07 09:57:35;;;;;;;15.20;11.50;;;13.50;99.90;;;;;;4948855;29;21006;-77
2021/10/07 10:00:02;;;;;;;13.50;9.97;;;13.50;99.90;;;;;;4951219;28;20201;-77
2021/10/07 10:02:29;;;;;;;13.57;10.77;;;13.40;99.90;;;;;;4953605;29;20451;-78
2021/10/07 10:04:54;;;;;;;16.43;11.93;;;13.40;99.90;;;;;;4952300;28;20955;-77
2021/10/07 10:07:20;;;;;;;15.10;12.00;;;13.50;99.90;;;;;;4951642;28;20931;-77
2021/10/07 10:09:46;;;;;;;11.70;10.50;;;13.40;99.90;;;;;;4951265;29;20449;-78
2021/10/07 10:12:12;;;;;;;12.90;11.17;;;13.50;99.90;;;;;;4949722;29;20599;-77
2021/10/07 10:14:38;;;;;;;11.23;10.00;;;13.50;99.90;;;;;;4951792;29;20212;-77
2021/10/07 10:17:04;;;;;;;15.57;11.50;;;13.40;99.90;;;;;;4951439;28;20185;-77
2021/10/07 10:19:32;;;;;;;16.03;10.60;;;13.40;99.90;;;;;;4949514;28;20768;-77
2021/10/07 10:21:59;;;;;;;18.30;10.77;;;13.40;99.90;;;;;;4949710;28;20697;-77
2021/10/07 10:24:25;;;;;;;12.47;9.10;;;13.50;99.90;;;;;;4952400;28;20486;-79
2021/10/07 10:27:03;;;;;;;13.77;10.13;;;13.50;99.90;;;;;;4949647;28;20440;-78
2021/10/07 10:29:33;;;;;;;11.90;9.43;;;13.60;99.90;;;;;;4952194;28;20436;-77
2021/10/07 10:31:59;;;;;;;9.80;8.57;;;13.70;99.90;;;;;;4952517;28;20459;-77
2021/10/07 10:34:24;;;;;;;10.77;8.73;;;13.80;99.90;;;;;;4944802;29;20445;-77
2021/10/07 10:36:51;;;;;;;14.63;9.47;;;13.90;99.90;;;;;;4952347;29;20216;-79
2021/10/07 10:39:26;;;;;;;13.80;9.00;;;14.20;99.90;;;;;;4947118;29;20612;-78
2021/10/07 10:41:57;;;;;;;14.00;8.93;;;14.40;99.90;;;;;;4951595;28;20471;-77
2021/10/07 10:44:40;;;;;;;8.83;7.93;;;14.50;99.90;;;;;;4949132;29;20472;-77
2021/10/07 10:47:05;;;;;;;9.87;8.87;;;14.70;99.90;;;;;;4953953;28;20417;-78
2021/10/07 10:49:46;;;;;;;9.97;8.00;;;14.70;99.90;;;;;;4948594;29;20926;-78
2021/10/07 10:52:30;;;;;;;10.60;9.00;;;14.80;99.90;;;;;;4934121;29;20678;-77
2021/10/07 10:54:57;;;;;;;9.90;7.67;;;14.90;99.90;;;;;;4939806;29;20536;-77
2021/10/07 10:57:31;;;;;;;8.60;7.73;;;14.90;99.90;;;;;;4950607;29;20424;-78
2021/10/07 11:00:04;;;;;;;6.30;5.73;;;15.00;99.90;;;;;;4952447;29;20491;-79
2021/10/07 11:02:30;;;;;;;6.43;5.27;;;15.10;99.90;;;;;;4953130;29;20447;-78
2021/10/07 11:04:57;;;;;;;5.00;4.50;;;15.30;99.90;;;;;;4948278;28;20504;-78
2021/10/07 11:07:30;;;;;;;4.90;4.50;;;15.50;99.90;;;;;;4953324;28;20199;-77
2021/10/07 11:10:03;;;;;;;8.43;4.33;;;15.50;99.90;;;;;;4951137;28;20482;-78
2021/10/07 11:12:46;;;;;;;10.23;4.80;;;15.50;99.90;;;;;;4948148;28;20456;-78
2021/10/07 11:15:13;;;;;;;9.30;4.23;;;15.60;99.90;;;;;;4952077;29;20415;-79
2021/10/07 11:17:41;;;;;;;5.70;5.00;;;15.70;99.90;;;;;;4949741;29;20472;-77
2021/10/07 11:20:08;;;;;;;7.70;4.87;;;15.60;99.90;;;;;;4951647;28;20494;-78
2021/10/07 11:22:33;;;;;;;8.73;5.70;;;15.40;99.90;;;;;;4948180;28;20466;-77
2021/10/07 11:24:59;;;;;;;7.57;4.30;;;15.60;99.90;;;;;;4951210;29;20436;-78
2021/10/07 11:27:41;;;;;;;5.53;4.93;;;15.70;99.90;;;;;;4950093;29;20187;-79
2021/10/07 11:30:09;;;;;;;3.93;3.63;;;15.80;99.90;;;;;;4953288;29;20183;-76
2021/10/07 11:32:36;;;;;;;4.37;3.97;;;15.90;99.90;;;;;;4951286;28;20474;-78
2021/10/07 11:35:05;;;;;;;3.80;3.50;;;15.90;99.90;;;;;;4949076;29;20423;-78
2021/10/07 11:37:56;;;;;;;4.63;4.10;;;16.00;99.90;;;;;;4953220;28;20849;-77
2021/10/07 11:40:41;;;;;;;5.97;4.37;;;15.90;99.90;;;;;;4954071;28;20505;-77
2021/10/07 11:43:10;;;;;;;6.67;5.10;;;15.60;99.90;;;;;;4952591;28;20436;-78
2021/10/07 11:45:39;;;;;;;7.27;4.77;;;15.40;99.90;;;;;;4954657;28;20565;-77
2021/10/07 11:48:08;;;;;;;6.33;5.30;;;15.30;99.90;;;;;;4953309;28;20812;-77
2021/10/07 11:50:43;;;;;;;6.13;5.20;;;15.30;99.90;;;;;;4955212;28;20918;-79
2021/10/07 11:53:11;;;;;;;6.80;4.37;;;15.40;99.90;;;;;;4955104;28;20470;-78
2021/10/07 11:55:45;;;;;;;4.40;4.00;;;15.60;99.90;;;;;;4947592;28;20528;-80
2021/10/07 11:58:11;;;;;;;4.50;3.93;;;15.60;99.90;;;;;;4955072;28;20446;-79
2021/10/07 12:00:47;;;;;;;5.53;4.00;;;15.70;99.90;;;;;;4953947;29;20514;-78
2021/10/07 12:03:21;;;;;;;5.70;4.13;;;15.80;99.90;;;;;;4954476;29;20446;-77
2021/10/07 12:05:53;;;;;;;5.03;4.63;;;15.90;99.90;;;;;;4951964;28;20515;-77
2021/10/07 12:08:19;;;;;;;4.60;4.17;;;16.00;99.90;;;;;;4956286;28;20415;-79
2021/10/07 12:11:09;;;;;;;5.13;4.40;;;16.00;99.90;;;;;;4950592;28;20898;-78
2021/10/07 12:13:37;;;;;;;4.67;4.03;;;16.10;99.90;;;;;;4948755;28;20428;-77
2021/10/07 12:16:16;;;;;;;5.47;4.97;;;16.10;99.90;;;;;;4951697;28;20444;-77
2021/10/07 12:18:44;;;;;;;4.60;4.30;;;16.10;99.90;;;;;;4953924;28;20416;-77
2021/10/07 12:21:13;;;;;;;4.07;3.77;;;16.00;99.90;;;;;;4952482;28;20476;-78
2021/10/07 12:23:52;;;;;;;4.70;4.30;;;16.10;99.90;;;;;;4955425;28;20451;-77
2021/10/07 12:26:25;;;;;;;4.30;4.00;;;16.00;99.90;;;;;;4948412;28;20440;-77
2021/10/07 12:28:52;;;;;;;4.73;4.10;;;15.80;99.90;;;;;;4955801;28;20503;-77
2021/10/07 12:31:22;;;;;;;8.13;4.80;;;15.70;99.90;;;;;;4953758;28;20467;-79
2021/10/07 12:34:03;;;;;;;4.47;3.30;;;15.60;99.90;;;;;;4950464;29;20472;-77
2021/10/07 12:36:45;;;;;;;6.20;4.27;;;15.70;99.90;;;;;;4948660;29;20961;-78
2021/10/07 12:39:39;;;;;;;4.70;3.47;;;15.70;99.90;;;;;;4955458;28;20499;-77
2021/10/07 12:42:10;;;;;;;7.03;4.57;;;15.70;99.90;;;;;;4937713;28;21119;-79
2021/10/07 12:44:44;;;;;;;5.77;4.10;;;15.60;99.90;;;;;;4953286;28;20429;-79
2021/10/07 12:47:16;;;;;;;3.33;3.03;;;15.50;99.90;;;;;;4953440;28;20503;-78
2021/10/07 12:49:44;;;;;;;6.20;4.23;;;15.50;99.90;;;;;;4950314;28;20448;-79
2021/10/07 12:52:17;;;;;;;4.67;4.27;;;15.50;99.90;;;;;;4952887;28;20863;-78
2021/10/07 12:54:50;;;;;;;6.73;5.27;;;15.40;99.90;;;;;;4944260;29;20444;-81
2021/10/07 12:57:46;;;;;;;5.80;3.67;;;15.50;99.90;;;;;;4935809;29;20432;-79
2021/10/07 13:00:25;;;;;;;7.70;4.20;;;15.60;99.90;;;;;;4936032;29;20475;-78
2021/10/07 13:02:52;;;;;;;7.33;4.17;;;15.50;99.90;;;;;;4935116;29;20456;-78
2021/10/07 13:05:26;;;;;;;5.33;3.83;;;15.60;99.90;;;;;;4935805;29;20448;-78
2021/10/07 13:07:53;;;;;;;6.97;4.60;;;15.60;99.90;;;;;;4935947;29;20409;-79
2021/10/07 13:10:19;;;;;;;3.93;3.57;;;15.50;99.90;;;;;;4934257;29;21006;-78
2021/10/07 13:12:45;;;;;;;5.83;3.57;;;15.50;99.90;;;;;;4935632;29;20433;-77
2021/10/07 13:15:10;;;;;;;7.20;3.13;;;15.50;99.90;;;;;;4934547;29;20188;-78
2021/10/07 13:17:36;;;;;;;4.63;3.97;;;15.40;99.90;;;;;;4933817;29;20204;-78
2021/10/07 13:20:03;;;;;;;6.23;4.23;;;15.40;99.90;;;;;;4934155;29;20774;-77
2021/10/07 13:22:29;;;;;;;5.10;4.70;;;15.40;99.90;;;;;;4935031;29;20214;-77
2021/10/07 13:24:56;;;;;;;5.53;4.20;;;15.30;99.90;;;;;;4933909;29;20421;-77
2021/10/07 13:27:24;;;;;;;4.00;3.30;;;15.40;99.90;;;;;;4934190;29;20695;-78
2021/10/07 13:29:52;;;;;;;4.20;3.23;;;15.40;99.90;;;;;;4935330;29;20426;-78
2021/10/07 13:32:19;;;;;;;3.50;3.27;;;15.50;99.90;;;;;;4933099;29;20533;-77
2021/10/07 13:34:45;;;;;;;3.80;2.77;;;15.60;99.90;;;;;;4935375;29;20452;-77
2021/10/07 13:37:15;;;;;;;4.10;3.07;;;15.50;99.90;;;;;;4935462;29;20445;-77
2021/10/07 13:39:41;;;;;;;3.43;3.23;;;15.50;99.90;;;;;;4933638;29;20815;-77
2021/10/07 13:42:07;;;;;;;3.20;3.00;;;15.50;99.90;;;;;;4933854;29;20465;-78
2021/10/07 13:44:34;;;;;;;3.20;2.87;;;15.50;99.90;;;;;;4935045;29;20431;-78
2021/10/07 13:46:59;;;;;;;4.30;2.63;;;15.50;99.90;;;;;;4933301;29;20426;-77
2021/10/07 13:49:25;;;;;;;3.03;2.63;;;15.40;99.90;;;;;;4933549;29;20483;-77
2021/10/07 13:51:50;;;;;;;3.00;2.73;;;15.30;99.90;;;;;;4934950;29;20229;-77
2021/10/07 13:54:16;;;;;;;3.33;3.00;;;15.40;99.90;;;;;;4932898;29;20189;-77
2021/10/07 13:56:45;;;;;;;3.73;3.10;;;15.30;99.90;;;;;;4934945;29;20200;-78
2021/10/07 13:59:11;;;;;;;3.70;3.40;;;15.30;99.90;;;;;;4933794;29;20181;-78
2021/10/07 14:01:36;;;;;;;4.27;3.03;;;15.10;99.90;;;;;;4932578;29;21016;-78
2021/10/07 14:04:02;;;;;;;3.90;2.90;;;15.00;99.90;;;;;;4934847;29;20255;-77
2021/10/07 14:06:28;;;;;;;3.37;2.80;;;14.90;99.90;;;;;;4934885;29;20291;-77
2021/10/07 14:08:53;;;;;;;5.63;2.77;;;14.90;99.90;;;;;;4932166;29;20174;-78
2021/10/07 14:11:20;;;;;;;3.57;2.37;;;14.90;99.90;;;;;;4934804;29;20197;-77
2021/10/07 14:13:46;;;;;;;5.40;2.27;;;14.90;99.90;;;;;;4934598;29;20181;-78
2021/10/07 14:16:12;;;;;;;4.10;3.10;;;15.00;99.90;;;;;;4933767;29;20500;-79
2021/10/07 14:18:38;;;;;;;4.27;2.80;;;15.10;99.90;;;;;;4934041;29;20421;-78
2021/10/07 14:21:04;;;;;;;5.23;2.77;;;15.20;99.90;;;;;;4933892;29;20475;-77
2021/10/07 14:23:29;;;;;;;2.60;2.40;;;15.20;99.90;;;;;;4950516;29;20188;-77
2021/10/07 14:25:55;;;;;;;8.93;2.70;;;15.20;99.90;;;;;;4932549;29;20177;-77
2021/10/07 14:28:22;;;;;;;2.73;2.53;;;15.40;99.90;;;;;;4934202;29;20256;-77
2021/10/07 14:30:49;;;;;;;2.70;2.60;;;15.50;99.90;;;;;;4933891;29;20520;-78
2021/10/07 14:33:15;;;;;;;2.70;2.50;;;15.50;99.90;;;;;;4932146;29;20429;-77
2021/10/07 14:35:41;;;;;;;2.20;2.10;;;15.50;99.90;;;;;;4934121;29;20416;-77
2021/10/07 14:38:07;;;;;;;2.80;2.70;;;15.50;99.90;;;;;;4933946;29;20409;-77
2021/10/07 14:40:32;;;;;;;6.43;2.60;;;15.30;99.90;;;;;;4932384;29;20197;-78
2021/10/07 14:42:58;;;;;;;2.70;2.50;;;15.10;99.90;;;;;;4934080;29;20236;-78
2021/10/07 14:45:24;;;;;;;2.80;2.50;;;15.00;99.90;;;;;;4934154;29;20169;-76
2021/10/07 14:47:50;;;;;;;9.37;2.20;;;15.00;99.90;;;;;;4932593;29;20263;-77
2021/10/07 14:50:17;;;;;;;3.10;2.00;;;14.90;99.90;;;;;;4933915;29;20225;-77
2021/10/07 14:52:43;;;;;;;2.00;1.90;;;14.90;99.90;;;;;;4933590;29;20276;-77
2021/10/07 14:55:12;;;;;;;2.13;2.03;;;14.80;99.90;;;;;;4932177;29;20504;-76
2021/10/07 14:57:38;;;;;;;3.43;1.73;;;14.70;99.90;;;;;;4932780;29;20179;-78
2021/10/07 15:00:07;;;;;;;1.97;1.87;;;14.60;99.90;;;;;;4933603;29;20413;-78
2021/10/07 15:02:35;;;;;;;3.87;1.90;;;14.50;99.90;;;;;;4931968;29;20500;-77
2021/10/07 15:05:01;;;;;;;2.07;1.97;;;14.50;99.90;;;;;;4933547;29;20413;-77
2021/10/07 15:07:27;;;;;;;2.40;2.20;;;14.40;99.90;;;;;;4935895;29;20785;-78
2021/10/07 15:09:52;;;;;;;5.97;5.37;;;14.40;99.90;;;;;;4934404;29;20552;-77
2021/10/07 15:12:18;;;;;;;2.47;2.27;;;14.30;99.90;;;;;;4937679;29;20678;-77
2021/10/07 15:14:43;;;;;;;2.50;2.30;;;14.30;99.90;;;;;;4937960;29;20272;-77
2021/10/07 15:17:09;;;;;;;2.57;2.37;;;14.30;99.90;;;;;;4935981;29;20217;-77
2021/10/07 15:19:37;;;;;;;4.40;1.80;;;14.30;99.90;;;;;;4937636;29;20212;-78
2021/10/07 15:22:04;;;;;;;4.10;1.90;;;14.30;99.90;;;;;;4935663;29;20221;-78
2021/10/07 15:24:30;;;;;;;9.57;2.67;;;14.30;99.90;;;;;;4935872;29;20413;-76
2021/10/07 15:26:56;;;;;;;2.33;2.13;;;14.30;99.90;;;;;;4937357;29;20409;-77
2021/10/07 15:29:22;;;;;;;4.80;2.10;;;14.40;99.90;;;;;;4937469;29;20256;-78
2021/10/07 15:31:51;;;;;;;2.80;2.50;;;14.40;99.90;;;;;;4935204;29;20452;-79
2021/10/07 15:34:17;;;;;;;3.30;2.07;;;14.40;99.90;;;;;;4937243;29;20504;-78
2021/10/07 15:36:43;;;;;;;2.47;2.27;;;14.40;99.90;;;;;;4937297;29;20423;-77
2021/10/07 15:39:08;;;;;;;2.03;1.93;;;14.40;99.90;;;;;;4935837;29;20417;-79
2021/10/07 15:41:34;;;;;;;2.07;1.77;;;14.50;99.90;;;;;;4937529;29;20321;-79
2021/10/07 15:44:01;;;;;;;2.80;2.60;;;14.50;99.90;;;;;;4937080;29;20182;-78
2021/10/07 15:46:27;;;;;;;4.50;2.40;;;14.50;99.90;;;;;;4935623;29;20552;-78
2021/10/07 15:48:53;;;;;;;2.70;2.50;;;14.60;99.90;;;;;;4937164;29;20838;-79
2021/10/07 15:51:19;;;;;;;5.30;2.80;;;14.70;99.90;;;;;;4937146;29;20445;-78
2021/10/07 15:53:45;;;;;;;6.60;4.70;;;14.70;99.90;;;;;;4934009;29;20425;-78
2021/10/07 15:56:11;;;;;;;9.00;4.20;;;14.70;99.90;;;;;;4937126;29;20264;-77
2021/10/07 15:58:37;;;;;;;2.90;2.70;;;14.60;99.90;;;;;;4935698;29;20189;-77
2021/10/07 16:01:02;;;;;;;3.10;2.90;;;14.60;99.90;;;;;;4935175;29;20224;-78
2021/10/07 16:03:28;;;;;;;7.57;5.50;;;14.60;99.90;;;;;;4936839;29;20421;-76
2021/10/07 16:05:57;;;;;;;2.57;2.37;;;14.60;99.90;;;;;;4933992;29;20174;-77
2021/10/07 16:08:25;;;;;;;4.33;3.90;;;14.50;99.90;;;;;;4934703;29;20597;-79
2021/10/07 16:10:53;;;;;;;3.87;3.33;;;14.50;99.90;;;;;;4936513;29;20437;-77
2021/10/07 16:13:19;;;;;;;2.90;2.27;;;14.40;99.90;;;;;;4944546;29;20421;-78
2021/10/07 16:15:44;;;;;;;4.05;2.30;;;14.40;99.90;;;;;;4934449;29;20488;-77
2021/10/07 16:18:10;;;;;;;5.00;2.50;;;14.40;99.90;;;;;;4936360;29;20264;-77
2021/10/07 16:20:36;;;;;;;1.87;1.77;;;14.30;99.90;;;;;;4935503;29;20706;-79
2021/10/07 16:23:02;;;;;;;2.20;2.10;;;14.30;99.90;;;;;;4934478;29;20181;-77
2021/10/07 16:25:27;;;;;;;2.57;2.10;;;14.30;99.90;;;;;;4934805;29;20182;-77
2021/10/07 16:27:53;;;;;;;2.77;1.80;;;14.30;99.90;;;;;;4935006;29;20472;-77
2021/10/07 16:30:18;;;;;;;2.60;2.40;;;14.30;99.90;;;;;;4934345;29;20427;-78
2021/10/07 16:32:44;;;;;;;2.67;2.40;;;14.20;99.90;;;;;;4935993;29;20590;-77
2021/10/07 16:35:09;;;;;;;2.50;2.30;;;14.20;99.90;;;;;;4935933;29;20181;-77
2021/10/07 16:37:36;;;;;;;2.93;2.73;;;14.20;99.90;;;;;;4933810;29;20177;-77
2021/10/07 16:40:02;;;;;;;2.30;2.10;;;14.20;99.90;;;;;;4935930;29;20260;-77
2021/10/07 16:42:28;;;;;;;3.30;2.13;;;14.10;99.90;;;;;;4935523;29;20461;-78
2021/10/07 16:44:53;;;;;;;2.20;2.00;;;14.10;99.90;;;;;;4945283;29;20433;-77
2021/10/07 16:47:19;;;;;;;4.30;1.83;;;14.00;99.90;;;;;;4954318;29;20173;-77
2021/10/07 16:49:45;;;;;;;2.20;2.00;;;13.90;99.90;;;;;;4954139;28;20173;-76
2021/10/07 16:52:11;;;;;;;2.00;1.90;;;13.80;99.90;;;;;;4954251;28;20503;-77
2021/10/07 16:54:37;;;;;;;2.73;2.03;;;13.80;99.90;;;;;;4955014;28;20184;-77
2021/10/07 16:57:02;;;;;;;2.50;2.30;;;13.70;99.90;;;;;;4955197;28;20420;-77
2021/10/07 16:59:28;;;;;;;2.40;2.20;;;13.60;99.90;;;;;;4953586;29;20231;-77
2021/10/07 17:01:53;;;;;;;6.20;2.10;;;13.50;99.90;;;;;;4954842;28;20218;-77
2021/10/07 17:04:19;;;;;;;2.90;1.60;;;13.50;99.90;;;;;;4954736;29;20270;-77
2021/10/07 17:06:44;;;;;;;3.27;2.10;;;13.40;99.90;;;;;;4955095;29;20177;-77
2021/10/07 17:09:11;;;;;;;1.97;1.87;;;13.30;99.90;;;;;;4954787;29;20177;-77
2021/10/07 17:11:37;;;;;;;2.70;2.10;;;13.20;99.90;;;;;;4954968;28;20189;-76
2021/10/07 17:14:03;;;;;;;2.83;2.43;;;13.10;99.90;;;;;;4954529;29;20427;-78
2021/10/07 17:16:29;;;;;;;4.27;1.40;;;13.00;99.90;;;;;;4954716;28;20177;-77
2021/10/07 17:18:55;;;;;;;1.97;1.87;;;13.00;99.90;;;;;;4954911;29;20428;-82